»·PEaware :: N733XE L52-L88

N733XE :: L52-L88

FLIGHT INFORMATION

Flight Status: Arrived
Operator: Privately registered:
United States
More flights under this callsign
Pilot: John A. (34961)
Aircraft: CESSNA 172 SKYHAWK
(C172)
More flights by this aircraft type
Origin: L52 Oceano Co
United States
Destination: L88 New Cuyama
United States
More flights between these airports :: More routes between these airports
Route: -WYNNR-
File this flight plan on PilotEdge
Remarks: CAT-01 Rating
Altitude:
(Current/Filed)
7,500ft
Speed:
(Current/Filed)
110kts
Departed: 19-Jan-22 07:18 PM
Arrived: 19-Jan-22 07:47 PM
Distance/Time
Traveled:
47nm/0:29
Distance/Time
To Go:
Arrived

Flight Plot

Page will automatically refresh every two minutes.

Flight plan parsing failed; only flown route is shown


Map Options




Map Legend


Flown Route
Filed Route
Departure Airport
Arrival Airport
Navaid (VOR, NDB)
Fix

Horizontal Profiles

Position Reports

Time Latitude Longitude Heading Altitude Ground
Speed
19-Jan-22 18:57 35.102098 -120.622279 213 17ft 0kts
19-Jan-22 18:58 35.102098 -120.622279 213 17ft 0kts
19-Jan-22 18:59 35.102097 -120.622279 213 17ft 0kts
19-Jan-22 19:00 35.102097 -120.622279 213 17ft 0kts
19-Jan-22 19:01 35.102097 -120.622279 213 17ft 0kts
19-Jan-22 19:02 35.102097 -120.622279 213 17ft 0kts
19-Jan-22 19:03 35.102097 -120.622279 213 17ft 0kts
19-Jan-22 19:04 35.102097 -120.622279 213 17ft 0kts
19-Jan-22 19:05 35.102097 -120.622279 213 17ft 0kts
19-Jan-22 19:06 35.102097 -120.622279 213 17ft 0kts
19-Jan-22 19:07 35.102097 -120.622279 213 17ft 0kts
19-Jan-22 19:08 35.102097 -120.622279 213 17ft 0kts
19-Jan-22 19:09 35.102097 -120.622279 213 17ft 0kts
19-Jan-22 19:10 35.102097 -120.622279 213 17ft 0kts
19-Jan-22 19:11 35.102097 -120.622279 213 17ft 0kts
19-Jan-22 19:12 35.102097 -120.622279 213 17ft 0kts
19-Jan-22 19:13 35.102393 -120.623031 304 16ft 14kts
19-Jan-22 19:14 35.103518 -120.625204 267 14ft 0kts
19-Jan-22 19:15 35.103518 -120.625205 267 14ft 0kts
19-Jan-22 19:16 35.103071 -120.625237 129 14ft 0kts
19-Jan-22 19:17 35.097089 -120.614130 127 378ft 75kts
19-Jan-22 19:18 35.091747 -120.591769 77 1416ft 76kts
19-Jan-22 19:19 35.095820 -120.566348 82 2393ft 77kts
19-Jan-22 19:20 35.101673 -120.541015 73 3300ft 79kts
19-Jan-22 19:21 35.102438 -120.514400 91 4171ft 79kts
19-Jan-22 19:22 35.102394 -120.487415 85 4974ft 81kts
19-Jan-22 19:23 35.101700 -120.455873 90 5529ft 102kts
19-Jan-22 19:24 35.102943 -120.419238 87 6004ft 109kts
19-Jan-22 19:25 35.104207 -120.382094 87 6489ft 110kts
19-Jan-22 19:26 35.105501 -120.341700 88 6550ft 128kts
19-Jan-22 19:27 35.106144 -120.299383 91 6726ft 124kts
19-Jan-22 19:28 35.106744 -120.260702 85 7346ft 106kts
19-Jan-22 19:29 35.109380 -120.221493 88 7577ft 125kts
19-Jan-22 19:30 35.103010 -120.179307 132 7519ft 134kts
19-Jan-22 19:31 35.085725 -120.139968 112 7530ft 134kts
19-Jan-22 19:32 35.074482 -120.096462 106 7366ft 133kts
19-Jan-22 19:33 35.063741 -120.055006 111 6983ft 124kts
19-Jan-22 19:34 35.050514 -120.016191 113 6454ft 125kts
19-Jan-22 19:35 35.037427 -119.976607 108 6048ft 126kts
19-Jan-22 19:36 35.022452 -119.938118 117 5661ft 125kts
19-Jan-22 19:37 35.007113 -119.900061 115 5304ft 124kts
19-Jan-22 19:38 34.993182 -119.861379 116 4913ft 124kts
19-Jan-22 19:39 34.979560 -119.822810 113 4491ft 123kts
19-Jan-22 19:40 34.965510 -119.784860 114 4081ft 120kts
19-Jan-22 19:41 34.950205 -119.749501 119 3416ft 120kts
19-Jan-22 19:42 34.933715 -119.716977 116 3095ft 98kts
19-Jan-22 19:43 34.928509 -119.686912 114 2961ft 87kts
19-Jan-22 19:44 34.924476 -119.661498 15 2902ft 72kts
19-Jan-22 19:45 34.936759 -119.677702 296 2284ft 64kts
19-Jan-22 19:46 34.941863 -119.690234 288 2158ft 17kts
19-Jan-22 19:47 34.942958 -119.691042 119 2155ft 0kts
19-Jan-22 19:48 34.942958 -119.691042 119 2155ft 0kts
19-Jan-22 19:49 34.942958 -119.691042 119 2155ft 0kts
19-Jan-22 19:50 34.942958 -119.691042 119 2155ft 0kts
19-Jan-22 19:51 34.942958 -119.691042 119 2155ft 0kts
19-Jan-22 19:52 34.942958 -119.691042 119 2155ft 0kts
19-Jan-22 19:53 34.942958 -119.691042 119 2155ft 0kts
19-Jan-22 19:55 34.942958 -119.691042 119 2155ft 0kts
19-Jan-22 19:56 34.942958 -119.691042 119 2155ft 0kts
19-Jan-22 19:57 34.942958 -119.691042 119 2155ft 0kts
19-Jan-22 19:58 34.942958 -119.691042 119 2155ft 0kts
19-Jan-22 19:59 34.942958 -119.691042 119 2155ft 0kts

Navigation Log

Ident Type
Flight plan parsing failed, navigation log unavailable